Richmond, Ohio
Current Conditions -  °F | °C
As of 11:49 AM on Tuesday 21 Oct 2014 (Local Time) from KHLG Reporting Station
Light Rain Light Rain  
Wind Chill: 52°   Ceiling: 1000
Heat Index: 52°   Visibility: 3mi
Dew Point: 48°   Wind: 6mph
Humidity: 88%   Direction: 280°W
Pressure: 29.9"   Gusts: NA
Location:  40.43°N, 80.77°W
Report Text: KHLG 211549Z 28005KT 3SM -RA BR SCT005 BKN010 OVC014 11/09 A2990 RMK AO2 RAB40 CIG 008V011 P0000
Loading
Personal Weather Stations






























Interactive Weather Map New forecast layout! Learn more

10-Day Weather Forecast

Advertisements
Track Severe Weather on mobile